Armington, Montana
Current Conditions -  °F | °C
As of 1:56 PM on Tuesday 27 Jan 2015 (Local Time) from KGFA Reporting Station
Clear Clear  
Wind Chill: 18°   Ceiling: Unl
Heat Index: 18°   Visibility: 10mi
Dew Point: -3°   Wind: 15mph
Humidity: 24%   Direction: 250°WSW
Pressure: 29.85"   Gusts: 22mph
Location:  47.3298°N, 110.893°W
Report Text: KGFA 272056Z AUTO 25013G19KT 10SM CLR 18/M03 A2985 RMK AO2 SLP105 T01751034 57021
Loading
Personal Weather Stations






























Interactive Weather Map New forecast layout! Learn more

10-Day Weather Forecast

Advertisements
Track Severe Weather on mobile